Time;durP1;ratioP1;P1;durP2;ratioP2;P2;SDS_P1;SDS_P2;PMS_P1;PMS_P2;Temp;Humidity;BMP_temperature;BMP_pressure;BME280_temperature;BME280_humidity;BME280_pressure;Samples;Min_cycle;Max_cycle;Signal;HPM_P1;HPM_P2
2022/06/03 00:01:10;;;;;;;2.20;2.10;;;21.10;66.00;;;;;;5107218;27;44069;-69
2022/06/03 00:03:48;;;;;;;1.90;1.90;;;21.00;66.10;;;;;;5106554;27;44057;-69
2022/06/03 00:06:28;;;;;;;2.20;2.10;;;21.00;66.90;;;;;;5087677;27;44443;-69
2022/06/03 00:09:44;;;;;;;2.10;2.10;;;21.00;66.10;;;;;;5107131;27;43929;-68
2022/06/03 00:12:23;;;;;;;2.20;2.20;;;21.00;66.20;;;;;;5007205;28;44141;-68
2022/06/03 00:15:20;;;;;;;2.20;2.20;;;21.00;66.20;;;;;;5006432;28;45822;-68
2022/06/03 00:17:59;;;;;;;2.20;2.10;;;21.00;66.20;;;;;;5083555;27;44074;-68
2022/06/03 00:20:35;;;;;;;2.40;2.30;;;21.00;66.50;;;;;;5087680;27;43372;-68
2022/06/03 00:23:49;;;;;;;2.10;2.10;;;21.00;67.20;;;;;;5106928;27;43774;-68
2022/06/03 00:26:49;;;;;;;2.40;2.30;;;21.10;66.80;;;;;;5052373;27;46015;-68
2022/06/03 00:29:39;;;;;;;2.13;2.13;;;21.30;66.10;;;;;;5071347;27;44638;-69
2022/06/03 00:33:01;;;;;;;1.77;1.77;;;21.50;65.60;;;;;;5087860;27;43888;-68
2022/06/03 00:35:43;;;;;;;2.00;2.00;;;21.80;65.00;;;;;;5012401;28;43559;-69
2022/06/03 00:38:47;;;;;;;1.90;1.90;;;22.00;64.30;;;;;;5023694;28;44073;-68
2022/06/03 00:41:26;;;;;;;1.70;1.70;;;22.10;63.80;;;;;;5101750;27;43912;-68
2022/06/03 00:44:10;;;;;;;1.70;1.70;;;22.20;63.40;;;;;;5097122;27;43963;-69
2022/06/03 00:46:44;;;;;;;1.93;1.93;;;22.30;62.90;;;;;;5110012;27;43960;-69
2022/06/03 00:49:26;;;;;;;2.27;2.20;;;22.40;62.70;;;;;;5109528;27;43991;-69
2022/06/03 00:52:13;;;;;;;1.93;1.93;;;22.30;62.90;;;;;;5109907;27;43837;-68
2022/06/03 00:54:53;;;;;;;1.90;1.90;;;22.10;63.30;;;;;;5087436;27;43990;-69
2022/06/03 00:57:38;;;;;;;1.90;1.90;;;21.90;63.80;;;;;;5110057;27;43360;-68
2022/06/03 01:00:10;;;;;;;1.80;1.80;;;21.70;64.00;;;;;;5109683;27;43889;-69
2022/06/03 01:02:58;;;;;;;1.60;1.60;;;21.60;64.40;;;;;;5109343;27;43935;-70
2022/06/03 01:05:32;;;;;;;1.80;1.80;;;21.40;64.70;;;;;;5090206;27;43347;-69
2022/06/03 01:08:06;;;;;;;2.23;2.13;;;21.30;65.00;;;;;;5071580;27;43455;-70
2022/06/03 01:10:58;;;;;;;1.83;1.83;;;21.20;66.00;;;;;;5089962;27;44045;-70
2022/06/03 01:13:34;;;;;;;1.70;1.70;;;21.20;65.50;;;;;;5103127;27;44116;-70
2022/06/03 01:16:12;;;;;;;1.60;1.60;;;21.10;65.60;;;;;;5109229;27;43946;-70
2022/06/03 01:18:45;;;;;;;1.80;1.80;;;21.10;65.80;;;;;;5094496;27;44001;-70
2022/06/03 01:21:22;;;;;;;2.00;2.00;;;21.10;65.90;;;;;;5089649;27;43963;-69
2022/06/03 01:24:24;;;;;;;1.67;1.67;;;21.00;65.90;;;;;;5089373;27;43991;-70
2022/06/03 01:27:21;;;;;;;1.57;1.57;;;21.00;66.00;;;;;;5088817;28;43910;-69
2022/06/03 01:30:02;;;;;;;1.67;1.67;;;21.00;66.10;;;;;;5089355;28;43943;-69
2022/06/03 01:32:55;;;;;;;1.80;1.80;;;21.00;66.10;;;;;;5089286;27;43904;-69
2022/06/03 01:35:36;;;;;;;1.70;1.70;;;21.00;66.10;;;;;;5089658;27;43435;-70
2022/06/03 01:38:09;;;;;;;1.87;1.77;;;21.00;67.10;;;;;;5088665;27;44055;-69
2022/06/03 01:40:49;;;;;;;1.80;1.80;;;21.10;66.90;;;;;;5089372;27;44174;-69
2022/06/03 01:43:47;;;;;;;1.63;1.63;;;21.20;66.50;;;;;;5089108;27;44881;-70
2022/06/03 01:46:26;;;;;;;1.60;1.60;;;21.40;66.00;;;;;;5088983;27;43957;-70
2022/06/03 01:49:20;;;;;;;1.80;1.80;;;21.60;65.60;;;;;;5088500;27;44026;-69
2022/06/03 01:52:06;;;;;;;1.67;1.67;;;21.80;65.00;;;;;;5089552;27;43410;-69
2022/06/03 01:54:49;;;;;;;1.57;1.57;;;21.90;64.30;;;;;;5089014;27;43742;-69
2022/06/03 01:57:39;;;;;;;1.60;1.60;;;22.10;63.90;;;;;;5089408;27;44386;-70
2022/06/03 02:00:32;;;;;;;1.60;1.60;;;22.20;63.50;;;;;;5070643;28;43997;-70
2022/06/03 02:03:24;;;;;;;1.50;1.50;;;22.30;63.10;;;;;;5074407;27;44044;-70
2022/06/03 02:06:15;;;;;;;1.60;1.60;;;22.40;62.70;;;;;;5078468;27;43991;-70
2022/06/03 02:09:14;;;;;;;1.40;1.40;;;22.40;62.40;;;;;;5103534;27;44027;-70
2022/06/03 02:12:21;;;;;;;1.60;1.60;;;22.30;62.50;;;;;;5108501;27;43999;-70
2022/06/03 02:15:06;;;;;;;1.40;1.40;;;22.20;63.20;;;;;;5067307;27;44080;-69
2022/06/03 02:18:02;;;;;;;1.43;1.43;;;21.90;63.60;;;;;;5088361;27;44004;-70
2022/06/03 02:21:05;;;;;;;1.60;1.60;;;21.70;63.80;;;;;;5088636;27;44017;-70
2022/06/03 02:23:58;;;;;;;1.40;1.40;;;21.50;64.30;;;;;;5088564;27;43380;-70
2022/06/03 02:27:01;;;;;;;1.50;1.50;;;21.40;64.80;;;;;;5089320;27;43896;-70
2022/06/03 02:32:52;;;;;;;1.50;1.50;;;21.20;65.30;;;;;;5088189;27;43958;-70
2022/06/03 02:35:36;;;;;;;1.50;1.50;;;21.20;65.60;;;;;;5088557;27;43853;-69
2022/06/03 02:38:20;;;;;;;1.47;1.47;;;21.10;65.70;;;;;;5088490;27;43946;-69
2022/06/03 02:41:33;;;;;;;1.50;1.50;;;21.10;65.80;;;;;;5069457;27;44591;-70
2022/06/03 02:44:24;;;;;;;1.50;1.50;;;21.00;66.60;;;;;;5025087;28;44017;-69
2022/06/03 02:47:31;;;;;;;1.37;1.37;;;21.00;65.90;;;;;;5066839;28;44100;-69
2022/06/03 02:50:40;;;;;;;1.50;1.50;;;21.00;66.10;;;;;;5025486;28;44002;-70
2022/06/03 02:53:31;;;;;;;1.40;1.40;;;21.00;66.10;;;;;;5040161;28;44803;-69
2022/06/03 02:56:31;;;;;;;1.40;1.40;;;21.00;66.10;;;;;;5090455;27;43924;-69
2022/06/03 02:59:32;;;;;;;1.40;1.40;;;20.90;66.10;;;;;;5088050;27;43371;-69
2022/06/03 03:02:30;;;;;;;1.30;1.30;;;20.90;66.10;;;;;;5086972;27;44115;-70
2022/06/03 03:05:22;;;;;;;1.30;1.30;;;20.90;66.10;;;;;;5087418;28;43983;-69
2022/06/03 03:08:23;;;;;;;1.20;1.20;;;20.90;66.90;;;;;;5087665;27;44098;-69
2022/06/03 03:11:05;;;;;;;1.40;1.40;;;21.00;66.80;;;;;;5075186;27;43945;-70
2022/06/03 03:14:27;;;;;;;1.33;1.33;;;21.20;66.40;;;;;;5102674;27;43777;-70
2022/06/03 03:17:15;;;;;;;1.30;1.30;;;21.40;65.80;;;;;;5061341;27;43597;-70
2022/06/03 03:20:03;;;;;;;1.40;1.40;;;21.60;65.20;;;;;;5107294;27;43417;-69
2022/06/03 03:22:50;;;;;;;1.37;1.37;;;21.80;64.60;;;;;;5105411;27;43908;-70
2022/06/03 03:25:44;;;;;;;1.30;1.30;;;22.00;63.90;;;;;;5097144;27;43492;-70
2022/06/03 03:28:25;;;;;;;1.20;1.20;;;22.10;63.50;;;;;;5094585;27;43873;-69
2022/06/03 03:31:01;;;;;;;1.40;1.40;;;22.30;63.20;;;;;;5096240;27;43893;-69
2022/06/03 03:33:39;;;;;;;1.17;1.17;;;22.40;62.70;;;;;;5107525;27;43296;-70
2022/06/03 03:36:40;;;;;;;1.10;1.10;;;22.40;62.50;;;;;;5084751;28;43948;-70
2022/06/03 03:39:35;;;;;;;1.40;1.40;;;22.20;62.70;;;;;;5094032;27;43839;-69
2022/06/03 03:42:34;;;;;;;1.30;1.30;;;22.10;63.50;;;;;;5106620;27;43430;-70
2022/06/03 03:45:23;;;;;;;1.10;1.10;;;21.90;63.80;;;;;;5107298;27;43872;-69
2022/06/03 03:48:22;;;;;;;1.10;1.10;;;21.60;63.80;;;;;;5107262;27;44012;-70
2022/06/03 03:50:58;;;;;;;1.10;1.10;;;21.50;64.20;;;;;;5106962;27;44021;-69
2022/06/03 03:53:59;;;;;;;1.20;1.20;;;21.40;64.60;;;;;;5077418;28;44712;-70
2022/06/03 03:56:59;;;;;;;1.10;1.10;;;21.30;64.80;;;;;;5087693;27;43838;-69
2022/06/03 04:00:05;;;;;;;1.20;1.20;;;21.20;65.80;;;;;;5087633;27;43912;-70
2022/06/03 04:03:15;;;;;;;1.40;1.40;;;21.20;65.40;;;;;;5061146;27;43988;-68
2022/06/03 04:06:12;;;;;;;1.20;1.20;;;21.10;65.40;;;;;;5087258;27;43362;-70
2022/06/03 04:09:13;;;;;;;1.27;1.27;;;21.10;65.50;;;;;;5087348;27;43316;-69
2022/06/03 04:12:13;;;;;;;1.10;1.10;;;21.10;65.70;;;;;;5095704;27;43997;-69
2022/06/03 04:14:56;;;;;;;1.13;1.13;;;21.10;66.40;;;;;;5093337;27;44813;-70
2022/06/03 04:17:56;;;;;;;1.13;1.13;;;21.00;65.70;;;;;;5110609;27;43434;-70
2022/06/03 04:20:34;;;;;;;1.10;1.10;;;21.00;65.70;;;;;;5093729;27;44010;-69
2022/06/03 04:23:44;;;;;;;1.10;1.10;;;21.00;65.70;;;;;;5091167;27;44026;-70
2022/06/03 04:26:39;;;;;;;1.23;1.23;;;21.00;65.70;;;;;;5070555;27;43846;-69
2022/06/03 04:29:41;;;;;;;1.27;1.27;;;21.00;66.20;;;;;;5090025;28;43859;-69
2022/06/03 04:32:38;;;;;;;1.40;1.40;;;21.00;66.60;;;;;;5090393;28;43933;-70
2022/06/03 04:35:40;;;;;;;1.20;1.20;;;21.20;66.30;;;;;;5090983;27;43333;-69
2022/06/03 04:38:34;;;;;;;1.30;1.30;;;21.40;65.80;;;;;;5070848;28;43886;-69
2022/06/03 04:41:41;;;;;;;1.30;1.30;;;21.60;65.10;;;;;;5089654;28;43484;-70
2022/06/03 04:44:40;;;;;;;1.13;1.13;;;21.80;64.30;;;;;;5089690;28;43974;-70
2022/06/03 04:47:45;;;;;;;1.10;1.10;;;22.00;63.80;;;;;;5089749;28;43999;-69
2022/06/03 04:50:46;;;;;;;1.40;1.40;;;22.20;63.30;;;;;;5089237;28;44349;-69
2022/06/03 04:53:58;;;;;;;1.20;1.20;;;22.30;62.80;;;;;;5089363;28;43979;-70
2022/06/03 04:56:57;;;;;;;1.13;1.13;;;22.40;62.40;;;;;;5073879;28;43976;-70
2022/06/03 05:00:04;;;;;;;1.10;1.10;;;22.30;62.70;;;;;;5083215;28;43762;-70
2022/06/03 05:03:13;;;;;;;1.20;1.20;;;22.10;63.10;;;;;;5069537;28;44975;-69
2022/06/03 05:06:01;;;;;;;1.20;1.20;;;21.80;63.40;;;;;;5069308;28;43876;-69
2022/06/03 05:09:06;;;;;;;1.00;1.00;;;21.60;63.70;;;;;;5069665;28;43833;-68
2022/06/03 05:12:22;;;;;;;1.10;1.10;;;21.50;64.10;;;;;;5046049;28;43946;-69
2022/06/03 05:15:11;;;;;;;1.13;1.13;;;21.30;64.40;;;;;;5056647;28;43853;-70
2022/06/03 05:18:22;;;;;;;1.27;1.27;;;21.20;64.80;;;;;;5087505;28;44168;-70
2022/06/03 05:21:31;;;;;;;1.00;1.00;;;21.20;65.10;;;;;;5069566;28;44024;-69
2022/06/03 05:24:14;;;;;;;1.20;1.20;;;21.10;65.30;;;;;;5076165;27;44068;-70
2022/06/03 05:26:56;;;;;;;1.30;1.30;;;21.10;65.50;;;;;;5068755;28;43938;-70
2022/06/03 05:29:46;;;;;;;1.20;1.20;;;21.00;65.50;;;;;;5072993;28;43885;-69
2022/06/03 05:32:53;;;;;;;1.20;1.20;;;21.00;65.50;;;;;;5069437;28;43850;-69
2022/06/03 05:35:36;;;;;;;0.90;0.90;;;21.00;65.70;;;;;;5033302;28;44395;-70
2022/06/03 05:38:30;;;;;;;1.10;1.10;;;21.00;65.70;;;;;;5074534;28;43936;-70
2022/06/03 05:44:01;;;;;;;1.20;1.20;;;21.00;66.50;;;;;;5076278;28;44038;-70
2022/06/03 05:46:36;;;;;;;1.10;1.10;;;20.90;66.00;;;;;;5089046;28;44098;-68
2022/06/03 05:49:14;;;;;;;1.03;1.03;;;21.00;66.70;;;;;;5088299;28;43872;-69
2022/06/03 05:51:58;;;;;;;1.10;1.10;;;21.10;66.50;;;;;;5077513;28;43383;-70
2022/06/03 05:54:34;;;;;;;1.00;1.00;;;21.20;66.00;;;;;;5068765;28;43936;-71
2022/06/03 05:57:09;;;;;;;1.20;1.20;;;21.40;65.60;;;;;;5058576;28;44158;-69
2022/06/03 05:59:46;;;;;;;1.10;1.10;;;21.50;65.00;;;;;;5088312;28;43955;-69
2022/06/03 06:02:19;;;;;;;1.10;1.10;;;21.70;64.50;;;;;;5088351;28;43956;-70
2022/06/03 06:04:56;;;;;;;1.17;1.17;;;21.90;64.10;;;;;;5088214;28;43997;-69
2022/06/03 06:07:28;;;;;;;1.00;1.00;;;22.10;63.60;;;;;;5088910;28;43927;-69
2022/06/03 06:10:06;;;;;;;1.20;1.20;;;22.20;63.10;;;;;;5075254;28;44906;-69
2022/06/03 06:12:45;;;;;;;1.00;1.00;;;22.30;62.70;;;;;;5075274;28;43412;-69
2022/06/03 06:15:47;;;;;;;1.00;1.00;;;22.40;62.40;;;;;;5086407;28;43359;-70
2022/06/03 06:18:26;;;;;;;0.90;0.90;;;22.50;62.20;;;;;;5046724;28;44021;-70
2022/06/03 06:20:59;;;;;;;1.07;1.07;;;22.40;62.20;;;;;;5076224;28;43872;-69
2022/06/03 06:23:36;;;;;;;0.97;0.97;;;22.20;62.60;;;;;;5086108;28;44030;-70
2022/06/03 06:26:36;;;;;;;1.00;1.00;;;22.10;63.20;;;;;;5068564;28;43395;-70
2022/06/03 06:29:50;;;;;;;0.97;0.97;;;21.80;63.30;;;;;;5082874;28;43884;-70
2022/06/03 06:32:47;;;;;;;1.00;1.00;;;21.60;63.60;;;;;;5059210;28;43957;-70
2022/06/03 06:35:52;;;;;;;1.13;1.07;;;21.50;64.20;;;;;;5087809;27;43751;-69
2022/06/03 06:38:22;;;;;;;1.10;1.10;;;21.30;64.50;;;;;;5077528;28;43902;-70
2022/06/03 06:40:58;;;;;;;1.00;1.00;;;21.20;64.80;;;;;;5088175;28;43522;-70
2022/06/03 06:43:38;;;;;;;0.90;0.90;;;21.10;65.70;;;;;;5062626;28;45731;-70
2022/06/03 06:46:10;;;;;;;0.90;0.90;;;21.10;65.20;;;;;;5081644;28;43711;-70
2022/06/03 06:48:53;;;;;;;2.43;1.10;;;21.10;65.40;;;;;;5080956;28;44003;-69
2022/06/03 06:51:49;;;;;;;1.33;1.00;;;21.00;65.40;;;;;;5087858;28;43944;-69
2022/06/03 06:54:22;;;;;;;0.90;0.90;;;21.00;65.60;;;;;;5086649;28;43867;-70
2022/06/03 06:56:51;;;;;;;1.20;1.20;;;21.00;65.60;;;;;;5087145;28;44062;-70
2022/06/03 06:59:24;;;;;;;1.20;1.20;;;21.00;65.70;;;;;;5068099;28;43917;-69
2022/06/03 07:01:55;;;;;;;1.33;1.33;;;20.90;65.60;;;;;;5068223;28;43996;-69
2022/06/03 07:04:25;;;;;;;1.47;1.47;;;20.90;65.70;;;;;;5067646;28;43911;-70
2022/06/03 07:06:55;;;;;;;2.10;1.67;;;20.90;65.70;;;;;;5064274;28;44650;-70
2022/06/03 07:09:38;;;;;;;1.50;1.40;;;20.90;65.80;;;;;;5087585;28;43920;-71
2022/06/03 07:12:13;;;;;;;2.00;1.90;;;20.90;65.90;;;;;;5087813;28;43490;-69
2022/06/03 07:14:56;;;;;;;2.87;2.03;;;20.90;65.80;;;;;;5069062;28;46123;-69
2022/06/03 07:20:20;;;;;;;2.80;1.93;;;20.90;66.70;;;;;;5077016;28;43964;-70
2022/06/03 07:22:52;;;;;;;2.50;2.20;;;21.10;66.30;;;;;;5087543;28;44139;-70
2022/06/03 07:25:25;;;;;;;4.00;2.20;;;21.20;65.90;;;;;;5086702;28;43719;-70
2022/06/03 07:27:57;;;;;;;2.33;2.17;;;21.40;65.40;;;;;;5068960;28;45204;-70
2022/06/03 07:30:30;;;;;;;4.97;2.57;;;21.60;64.90;;;;;;5068924;28;43967;-70
2022/06/03 07:33:01;;;;;;;2.03;1.93;;;21.80;64.30;;;;;;5087593;28;43983;-69
2022/06/03 07:35:31;;;;;;;2.83;2.30;;;22.00;63.90;;;;;;5073384;28;44026;-69
2022/06/03 07:38:02;;;;;;;3.87;2.30;;;22.10;63.40;;;;;;5099446;27;43973;-70
2022/06/03 07:40:33;;;;;;;2.83;2.37;;;22.20;63.10;;;;;;5107478;27;43768;-70
2022/06/03 07:43:04;;;;;;;2.60;2.40;;;22.20;62.70;;;;;;5107753;27;43990;-70
2022/06/03 07:45:44;;;;;;;3.67;2.50;;;22.20;62.70;;;;;;5107006;27;43967;-70
2022/06/03 07:48:13;;;;;;;2.43;2.23;;;22.00;63.10;;;;;;5106230;27;44098;-69
2022/06/03 07:50:46;;;;;;;2.47;2.10;;;21.90;63.80;;;;;;5107367;27;43280;-69
2022/06/03 07:53:18;;;;;;;2.03;1.93;;;21.70;63.80;;;;;;5090447;27;44042;-70
2022/06/03 07:55:52;;;;;;;2.30;2.10;;;21.50;64.00;;;;;;5087357;27;44824;-70
2022/06/03 07:58:24;;;;;;;2.27;2.07;;;21.40;64.40;;;;;;5087531;27;43374;-69
2022/06/03 08:00:55;;;;;;;1.80;1.70;;;21.30;64.70;;;;;;5106594;27;43452;-68
2022/06/03 08:03:24;;;;;;;2.30;2.10;;;21.20;65.00;;;;;;5107501;27;43936;-69
2022/06/03 08:06:00;;;;;;;2.37;2.17;;;21.10;66.00;;;;;;5087079;27;43980;-69
2022/06/03 08:11:30;;;;;;;2.13;2.03;;;21.00;65.60;;;;;;5062006;28;44066;-69
2022/06/03 08:13:59;;;;;;;2.23;2.13;;;21.00;65.80;;;;;;5098321;27;44043;-70
2022/06/03 08:16:33;;;;;;;2.40;2.20;;;20.90;66.60;;;;;;5106932;27;43907;-70
2022/06/03 08:19:09;;;;;;;3.10;2.50;;;20.90;65.90;;;;;;5106682;27;43977;-69
2022/06/03 08:21:41;;;;;;;2.30;2.10;;;20.90;66.00;;;;;;5106871;27;43990;-69
2022/06/03 08:24:11;;;;;;;2.10;2.00;;;20.90;66.10;;;;;;5089699;27;43879;-69
2022/06/03 08:26:42;;;;;;;2.37;2.17;;;20.90;66.10;;;;;;5104466;27;44819;-69
2022/06/03 08:29:14;;;;;;;2.20;2.03;;;20.80;66.10;;;;;;5106433;27;43983;-69
2022/06/03 08:31:43;;;;;;;2.17;2.03;;;20.80;66.60;;;;;;5101223;27;43377;-69
2022/06/03 08:34:14;;;;;;;1.97;1.87;;;20.90;67.10;;;;;;5100488;27;44045;-70
2022/06/03 08:36:42;;;;;;;2.00;1.90;;;21.00;66.80;;;;;;5086493;27;43786;-69
2022/06/03 08:39:14;;;;;;;2.00;1.90;;;21.10;66.30;;;;;;5086919;27;43344;-70
2022/06/03 08:42:07;;;;;;;2.07;1.87;;;21.20;65.90;;;;;;5086958;27;43927;-70
2022/06/03 08:44:46;;;;;;;2.40;2.20;;;21.50;65.60;;;;;;5087282;27;43975;-70
2022/06/03 08:47:19;;;;;;;2.00;1.90;;;21.60;65.00;;;;;;5086429;27;43884;-69
2022/06/03 08:49:55;;;;;;;1.90;1.80;;;21.80;64.40;;;;;;5068435;28;44262;-70
2022/06/03 08:52:25;;;;;;;2.20;2.00;;;22.00;64.00;;;;;;5086782;27;43909;-70
2022/06/03 08:54:54;;;;;;;2.10;2.00;;;22.00;63.50;;;;;;5100837;27;43987;-70
2022/06/03 08:57:30;;;;;;;1.83;1.73;;;22.20;63.30;;;;;;5106316;27;44005;-70
2022/06/03 09:00:01;;;;;;;1.77;1.77;;;22.20;63.70;;;;;;5100081;27;43903;-69
2022/06/03 09:02:32;;;;;;;1.90;1.80;;;22.30;62.70;;;;;;5091895;27;43351;-69
2022/06/03 09:05:01;;;;;;;1.90;1.80;;;22.30;62.60;;;;;;5094448;27;43931;-70
2022/06/03 09:07:38;;;;;;;1.90;1.80;;;22.20;62.90;;;;;;5093149;27;43951;-69
2022/06/03 09:10:10;;;;;;;1.90;1.80;;;22.00;63.30;;;;;;5109791;27;44068;-70
2022/06/03 09:12:42;;;;;;;1.73;1.63;;;21.90;63.80;;;;;;5109876;27;43975;-69
2022/06/03 09:15:12;;;;;;;2.13;2.03;;;21.60;64.60;;;;;;5110118;27;43942;-69
2022/06/03 09:17:47;;;;;;;1.97;1.83;;;21.50;64.30;;;;;;5104470;27;44943;-70
2022/06/03 09:20:18;;;;;;;2.00;1.90;;;21.30;64.70;;;;;;5071379;28;45058;-70
2022/06/03 09:22:46;;;;;;;2.00;1.90;;;21.20;65.10;;;;;;5089656;28;44097;-69
2022/06/03 09:25:15;;;;;;;2.00;1.90;;;21.10;65.40;;;;;;5103336;27;43992;-69
2022/06/03 09:27:43;;;;;;;2.00;1.90;;;21.10;65.60;;;;;;5089255;28;44001;-70
2022/06/03 09:30:12;;;;;;;2.00;1.90;;;21.00;65.80;;;;;;5089417;28;44017;-70
2022/06/03 09:32:47;;;;;;;1.80;1.80;;;21.00;65.90;;;;;;5102631;27;44057;-70
2022/06/03 09:35:17;;;;;;;1.93;1.83;;;20.90;66.10;;;;;;5101958;27;43873;-70
2022/06/03 09:37:47;;;;;;;1.90;1.80;;;20.90;66.10;;;;;;5088811;27;43890;-69
2022/06/03 09:40:18;;;;;;;1.70;1.60;;;20.90;67.00;;;;;;5089555;27;43447;-69
2022/06/03 09:42:53;;;;;;;1.90;1.80;;;20.90;66.30;;;;;;5089526;27;43446;-69
2022/06/03 09:45:21;;;;;;;1.77;1.67;;;20.90;66.30;;;;;;5089860;27;44058;-71
2022/06/03 09:47:50;;;;;;;1.83;1.73;;;20.90;66.30;;;;;;5098850;27;44052;-69
2022/06/03 09:50:19;;;;;;;1.87;1.77;;;20.90;66.30;;;;;;5108563;27;43991;-68
2022/06/03 09:52:48;;;;;;;1.80;1.80;;;20.90;67.00;;;;;;5108976;27;43935;-70
2022/06/03 09:55:28;;;;;;;2.20;2.10;;;20.90;66.30;;;;;;5109435;27;43335;-69
2022/06/03 09:57:57;;;;;;;1.80;1.70;;;20.90;66.30;;;;;;5109165;27;44347;-69
2022/06/03 10:00:26;;;;;;;1.73;1.73;;;20.90;66.30;;;;;;5108895;27;44015;-70
2022/06/03 10:02:56;;;;;;;1.70;1.70;;;20.90;66.60;;;;;;5078257;28;43947;-70
2022/06/03 10:05:24;;;;;;;1.50;1.50;;;20.90;67.10;;;;;;5089745;27;44021;-70
2022/06/03 10:07:57;;;;;;;2.07;1.97;;;21.00;66.80;;;;;;5089018;27;43957;-69
2022/06/03 10:13:10;;;;;;;1.60;1.60;;;21.40;66.00;;;;;;5088831;28;44014;-70
2022/06/03 10:15:39;;;;;;;2.67;1.90;;;21.50;65.30;;;;;;5088975;28;43441;-69
2022/06/03 10:18:28;;;;;;;1.93;1.83;;;21.70;64.90;;;;;;5090856;27;43988;-70
2022/06/03 10:21:30;;;;;;;1.63;1.63;;;21.90;64.40;;;;;;5108299;27;43923;-69
2022/06/03 10:24:00;;;;;;;1.77;1.77;;;22.00;63.90;;;;;;5108431;27;44404;-69
2022/06/03 10:26:40;;;;;;;1.70;1.60;;;22.10;63.40;;;;;;5108616;27;43866;-70
2022/06/03 10:29:09;;;;;;;1.83;1.73;;;22.20;63.20;;;;;;5084743;28;43929;-70
2022/06/03 10:31:48;;;;;;;1.53;1.50;;;22.20;63.50;;;;;;5108313;27;44103;-69
2022/06/03 10:34:21;;;;;;;1.50;1.50;;;22.00;63.70;;;;;;5088561;28;43999;-70
2022/06/03 10:36:51;;;;;;;1.50;1.50;;;21.80;64.00;;;;;;5088347;28;43754;-69
2022/06/03 10:39:30;;;;;;;1.90;1.90;;;21.70;64.20;;;;;;5088159;28;44666;-70
2022/06/03 10:41:59;;;;;;;1.80;1.70;;;21.50;64.50;;;;;;5088502;28;44000;-70
2022/06/03 10:44:28;;;;;;;1.63;1.63;;;21.40;64.90;;;;;;5088317;28;44062;-69
2022/06/03 10:46:58;;;;;;;1.63;1.60;;;21.30;65.20;;;;;;5088153;28;44090;-70
2022/06/03 10:49:28;;;;;;;1.43;1.43;;;21.20;65.50;;;;;;5088002;28;44956;-70
2022/06/03 11:03:05;;;;;;;1.40;1.30;;;21.00;66.20;;;;;;5107986;27;43977;-69
2022/06/03 11:05:36;;;;;;;1.30;1.30;;;20.90;66.30;;;;;;5094224;27;43936;-69
2022/06/03 11:08:05;;;;;;;1.40;1.40;;;20.90;66.30;;;;;;5088512;27;43972;-69
2022/06/03 11:10:37;;;;;;;1.50;1.50;;;20.90;66.40;;;;;;5087790;27;44800;-69
2022/06/03 11:13:14;;;;;;;1.40;1.40;;;20.90;67.10;;;;;;5087692;27;44088;-70
2022/06/03 11:15:43;;;;;;;1.57;1.57;;;20.90;66.40;;;;;;5087830;27;43921;-70
2022/06/03 11:18:16;;;;;;;1.30;1.30;;;20.90;66.50;;;;;;5088442;27;43966;-70
2022/06/03 11:20:48;;;;;;;1.73;1.70;;;20.90;66.50;;;;;;5069331;28;47597;-70
2022/06/03 11:23:16;;;;;;;1.30;1.30;;;20.90;66.50;;;;;;5086914;27;44166;-70
2022/06/03 11:25:46;;;;;;;1.60;1.50;;;20.90;66.60;;;;;;5092473;27;43454;-69
2022/06/03 11:28:16;;;;;;;1.30;1.30;;;20.90;67.20;;;;;;5107645;27;44042;-70
2022/06/03 11:30:47;;;;;;;1.30;1.30;;;21.00;67.00;;;;;;5107095;27;43904;-69
2022/06/03 11:33:19;;;;;;;1.47;1.47;;;21.20;66.60;;;;;;5100913;27;44004;-69
2022/06/03 11:35:52;;;;;;;1.50;1.50;;;21.30;66.10;;;;;;5095077;27;43939;-70
2022/06/03 11:38:23;;;;;;;1.20;1.20;;;21.50;65.70;;;;;;5087798;27;43924;-70
2022/06/03 11:40:54;;;;;;;1.60;1.60;;;21.70;65.30;;;;;;5094442;27;43946;-70
2022/06/03 11:43:25;;;;;;;1.50;1.50;;;21.80;64.70;;;;;;5087095;28;43921;-70
2022/06/03 11:46:15;;;;;;;1.40;1.30;;;22.00;64.40;;;;;;5087165;28;43819;-69
2022/06/03 11:48:44;;;;;;;1.30;1.30;;;22.10;63.80;;;;;;5087393;28;44019;-70
2022/06/03 11:51:13;;;;;;;1.50;1.50;;;22.20;63.60;;;;;;5069095;28;43987;-70
2022/06/03 11:53:47;;;;;;;1.20;1.20;;;22.20;63.40;;;;;;5086920;28;44022;-71
2022/06/03 11:56:17;;;;;;;1.50;1.40;;;22.10;63.50;;;;;;5087935;27;43998;-70
2022/06/03 11:58:49;;;;;;;1.20;1.20;;;22.00;64.00;;;;;;5107573;27;43946;-69
2022/06/03 12:01:19;;;;;;;1.40;1.40;;;21.80;64.10;;;;;;5107060;27;43888;-69
2022/06/03 12:03:52;;;;;;;1.43;1.43;;;21.60;65.10;;;;;;5086985;28;43959;-71
2022/06/03 12:06:24;;;;;;;1.60;1.50;;;21.50;64.80;;;;;;5086969;28;43911;-69
2022/06/03 12:08:54;;;;;;;1.37;1.37;;;21.40;65.10;;;;;;5087345;28;43904;-70
2022/06/03 12:14:31;;;;;;;1.60;1.50;;;21.20;65.80;;;;;;5098248;27;44021;-70
2022/06/03 12:17:00;;;;;;;1.37;1.37;;;21.10;66.10;;;;;;5094002;27;43954;-69
2022/06/03 12:19:42;;;;;;;1.50;1.40;;;21.00;66.10;;;;;;5107454;27;43969;-69
2022/06/03 12:22:36;;;;;;;1.30;1.30;;;21.00;66.30;;;;;;5106746;27;44043;-69
2022/06/03 12:26:02;;;;;;;1.30;1.30;;;21.00;66.50;;;;;;5106871;27;44005;-69
2022/06/03 12:28:32;;;;;;;1.47;1.47;;;20.90;66.50;;;;;;5093644;27;44039;-70
2022/06/03 12:31:01;;;;;;;1.20;1.20;;;20.90;67.30;;;;;;5087764;27;43399;-70
2022/06/03 12:33:33;;;;;;;1.30;1.30;;;20.90;66.70;;;;;;5107186;27;43955;-70
2022/06/03 12:36:06;;;;;;;1.27;1.27;;;20.90;66.80;;;;;;5091353;27;44798;-70
2022/06/03 12:38:45;;;;;;;1.20;1.20;;;20.90;66.80;;;;;;5094916;27;43885;-69
2022/06/03 12:41:41;;;;;;;1.40;1.40;;;20.90;66.90;;;;;;5107567;27;43317;-68
2022/06/03 12:44:09;;;;;;;1.70;1.40;;;20.90;66.90;;;;;;5109525;27;44695;-70
2022/06/03 12:46:41;;;;;;;1.30;1.30;;;20.90;67.50;;;;;;5103380;27;43968;-69
2022/06/03 12:49:36;;;;;;;1.33;1.33;;;20.90;67.50;;;;;;5109958;27;43988;-70
2022/06/03 12:52:08;;;;;;;1.33;1.33;;;21.10;67.20;;;;;;5109778;27;43970;-70
2022/06/03 12:54:37;;;;;;;1.50;1.50;;;21.20;66.70;;;;;;5109690;27;44014;-69
2022/06/03 12:57:08;;;;;;;1.20;1.20;;;21.40;66.30;;;;;;5109913;27;43967;-70
2022/06/03 12:59:43;;;;;;;1.20;1.20;;;21.60;65.70;;;;;;5110149;27;43362;-69
2022/06/03 13:02:16;;;;;;;1.50;1.50;;;21.70;65.20;;;;;;5090567;27;43346;-70
2022/06/03 13:05:03;;;;;;;1.20;1.20;;;21.90;64.80;;;;;;5089915;27;43992;-69
2022/06/03 13:07:33;;;;;;;1.20;1.20;;;22.00;64.40;;;;;;5087253;27;43889;-69
2022/06/03 13:10:23;;;;;;;1.10;1.10;;;22.10;64.70;;;;;;5107401;27;43751;-69
2022/06/03 13:12:52;;;;;;;1.30;1.30;;;22.20;63.60;;;;;;5090137;28;43848;-70
2022/06/03 13:15:45;;;;;;;1.50;1.50;;;22.30;63.40;;;;;;5089460;28;43963;-69
2022/06/03 13:18:18;;;;;;;1.20;1.20;;;22.20;63.40;;;;;;5089849;27;44016;-69
2022/06/03 13:20:47;;;;;;;1.40;1.40;;;22.10;63.70;;;;;;5089979;27;43976;-69
2022/06/03 13:23:26;;;;;;;1.10;1.10;;;21.90;64.20;;;;;;5090093;27;43441;-71
2022/06/03 13:25:56;;;;;;;1.40;1.40;;;21.70;64.40;;;;;;5095823;27;43959;-70
2022/06/03 13:28:38;;;;;;;1.20;1.20;;;21.50;64.80;;;;;;5109142;27;43338;-69
2022/06/03 13:31:18;;;;;;;1.20;1.20;;;21.40;65.30;;;;;;5109536;27;43944;-70
2022/06/03 13:34:22;;;;;;;1.20;1.20;;;21.30;65.70;;;;;;5109769;27;43930;-69
2022/06/03 13:37:29;;;;;;;1.20;1.20;;;21.20;66.10;;;;;;5108730;27;43941;-69
2022/06/03 13:40:31;;;;;;;1.20;1.20;;;21.10;66.40;;;;;;4992950;28;44161;-70
2022/06/03 13:43:19;;;;;;;1.40;1.40;;;21.00;66.60;;;;;;5053508;27;43948;-68
2022/06/03 13:45:59;;;;;;;1.10;1.10;;;20.90;66.60;;;;;;5089234;27;43939;-70
2022/06/03 13:48:46;;;;;;;1.30;1.30;;;20.90;66.70;;;;;;5091277;27;44092;-69
2022/06/03 13:51:23;;;;;;;1.40;1.40;;;20.90;66.90;;;;;;5109086;27;44084;-70
2022/06/03 13:53:54;;;;;;;1.80;1.70;;;20.80;66.40;;;;;;5108996;27;44033;-69
2022/06/03 13:56:23;;;;;;;1.80;1.73;;;20.90;66.30;;;;;;5089507;28;43284;-70
2022/06/03 13:58:53;;;;;;;1.57;1.57;;;20.90;66.30;;;;;;5088751;28;43994;-70
2022/06/03 14:01:26;;;;;;;1.63;1.50;;;20.80;66.20;;;;;;5089073;28;43963;-70
2022/06/03 14:03:58;;;;;;;1.80;1.60;;;20.80;66.20;;;;;;5096863;27;43906;-70
2022/06/03 14:06:30;;;;;;;1.77;1.77;;;20.80;66.20;;;;;;5095055;27;43425;-69
2022/06/03 14:09:00;;;;;;;1.70;1.70;;;20.80;66.20;;;;;;5088921;27;43607;-69
2022/06/03 14:11:31;;;;;;;1.80;1.80;;;20.80;66.20;;;;;;5098037;27;43984;-70
2022/06/03 14:14:03;;;;;;;2.10;2.00;;;20.80;66.20;;;;;;5108087;27;44054;-70
2022/06/03 14:16:34;;;;;;;1.87;1.87;;;20.80;66.80;;;;;;5109164;27;43911;-69
2022/06/03 14:19:22;;;;;;;1.77;1.67;;;21.00;66.90;;;;;;5090073;27;47008;-69
2022/06/03 14:22:13;;;;;;;1.70;1.60;;;21.10;66.50;;;;;;5108615;27;43433;-69
2022/06/03 14:24:43;;;;;;;2.43;1.50;;;21.40;65.90;;;;;;5106024;27;44052;-69
2022/06/03 14:27:13;;;;;;;1.90;1.90;;;21.50;65.30;;;;;;5105594;27;43879;-70
2022/06/03 14:29:44;;;;;;;1.80;1.80;;;21.70;64.80;;;;;;5108045;27;44985;-69
2022/06/03 14:32:16;;;;;;;2.20;2.10;;;21.80;64.30;;;;;;5108517;27;43902;-70